Hauptseite
METAR-TAF:

METAR-TAF

Flughäfen :

Helsinki, Finnland

Flughafen Helsinki-Vantaa

Breite: 60-19N, Länge: 024-58E, Höhe: 51 m

Beobachtung

Neuester Wetterbericht von vor 9 Minuten, um 22:20 UTC
Wind 4 kt aus West/Nordwest
Temperatur 12°C
Luftfeuchtigkeit 88%
Luftdruck 1015 hPa
Sichtweite 10 km oder mehr
keine Wolken unter 1500 m und keine Kumulonimbus oder Gewitterwolken

METAR: EFHK 232220Z 29004KT CAVOK 12/10 Q1015 NOSIG

Zeit: 01:29 (22:29 UTC)

Prognose

Neuester Wetterbericht von vor 1 Stunde und 51 Minuten, um 20:38 UTC
Gültige Prognose vom 23 um 21 UTC bis 24 um 21 UTC
Wind 4 kt aus Nordwest
Sichtweite 10 km oder mehr
keine Wolken unter 1500 m und keine Kumulonimbus oder Gewitterwolken
Wahrscheinlichkeit 30%
vom 24 um 00 UTC bis 24 um 04 UTC
Sichtweite: 2500 m
feuchter Dunst

TAF: EFHK 232038Z 2321/2421 31004KT CAVOK PROB30 2400/2404 2500 BR

Wetterbeobachtungen und Prognosen von mehr als 4000 Flughäfen (METAR und TAF Bericht).

Die verfügbaren Stationen werden durch gelbe und rote Markierungen auf der Karte dargestellt.

Führen Sie die Maus auf sie, um den Namen der Station zu sehen.

Darauf klicken, um die Beobachtung von Wetterbeobachtungen und Prognosen zu sehen.

Um die Karte zu ändern : klicken Sie auf den grünen Tasten mit einem schwarzen Kreuz Zum Vergrößern, auf den grünen Button mit einem Gedankenstrich zu verkleinern, oder auf die grünen Pfeile für benachbarte Karten.


METAR-TAF: